Overview Statistics Trail Chart Weather Telemetry Raw packets
 

This is the latest recevied weather packets stored in our database for station/object KQ7A. If no packets are shown the sender has not sent any weather packets the latest 10 day(s).

<< 103 104 105 106 107 108 109 >>
Time Temp. Humidity Pressure Rain* Wind** Luminosity Snow
1787905307 16.67° C 49% 1020.9 hPa 0 mm - 0 W/m² -
1787905005 16.67° C 53% 1020.7 hPa 0 mm - 0 W/m² -
1787904702 17.22° C 49% 1020.8 hPa 0 mm - 0 W/m² -
1787904397 17.78° C 44% 1020.9 hPa 0 mm - 0 W/m² -
1787904092 18.33° C 40% 1020.8 hPa 0 mm - 0 W/m² -
1787903787 18.89° C 41% 1020.9 hPa 0 mm - 0 W/m² -
1787903483 19.44° C 36% 1021.3 hPa 0 mm - 0 W/m² -
1787903178 19.44° C 33% 1021.1 hPa 0 mm - 0 W/m² -
1787902875 19.44° C 32% 1021.3 hPa 0 mm - 0 W/m² -
1787902571 19.44° C 32% 1021.2 hPa 0 mm - 0 W/m² -
1787902266 18.89° C 32% 1021.2 hPa 0 mm - 0 W/m² -
1787901961 17.78° C 34% 1021.4 hPa 0 mm - 0 W/m² -
1787901656 17.78° C 38% 1021.3 hPa 0 mm - 0 W/m² -
1787901346 18.33° C 35% 1021.2 hPa 0 mm - 0 W/m² -
1787901042 19.44° C 34% 1021.3 hPa 0 mm - 0 W/m² -
1787900737 19.44° C 32% 1021.2 hPa 0 mm - 0 W/m² -
1787900431 18.33° C 34% 1021.1 hPa 0 mm - 0 W/m² -
1787900125 17.78° C 38% 1020.9 hPa 0 mm - 0 W/m² -
1787899821 17.78° C 43% 1021.2 hPa 0 mm - 0 W/m² -
1787899516 18.33° C 45% 1021.1 hPa 0 mm - 0 W/m² -
1787899211 18.89° C 39% 1021.4 hPa 0 mm - 0 W/m² -
1787898906 19.44° C 37% 1021.2 hPa 0 mm - 0 W/m² -
1787898602 19.44° C 32% 1021.3 hPa 0 mm - 0 W/m² -
1787898300 19.44° C 33% 1021.4 hPa 0 mm - 0 W/m² -
1787897994 19.44° C 35% 1021.3 hPa 0 mm - 0 W/m² -

* Rain latest hour (hover to see other rain measurements)
** Current wind speed in m/s (hover to see current wind gust speed)